デリー の空港の天気 - METARとTAF

インディラ・ガンディー国際空港 ( VIDP / DEL ) - インド デリー
飛行場実況気象(Metar)
観測時間01/29 14:00 IST (01/29 08:30 UTC)
風向・風速西 3m/s
視程2500m
天気現象煙霧
なし
気温20℃
湿度37%
気圧1016hPa
METARVIDP 290830Z 28006KT 2500 HZ NSC 20/05 Q1016 NOSIG
過去の天気等 Google飛行場航空写真 Wunderground天気予報

過去48時間のMETAR

飛行場予報(TAF)
発表時間: 1/29 10:31 IST (1/29 05:01 UTC)
予報対象時間: 29日11時 IST ~ 30日17時 IST
風向・風速西 3m/s
視程2500m
天気現象煙霧
なし
29日13時 IST ~ 29日15時 IST に徐々に
風向・風速西北西 4m/s
視程3500m
天気現象煙霧
29日20時 IST ~ 29日22時 IST に徐々に
風向・風速不定 1m/s
視程2200m
天気現象煙霧 もや
30日4時 IST ~ 30日6時 IST に徐々に
風向・風速西北西 4m/s
視程1200m
天気現象もや
30日9時 IST ~ 30日11時 IST に徐々に
風向・風速西北西 4m/s 瞬間風速 9m/s
視程2500m
天気現象もや 煙霧
30日13時 IST ~ 30日15時 IST に徐々に
風向・風速北西 5m/s
視程3500m
天気現象煙霧
なし
TAF VIDP 290501Z 2906/3012 27005KT 2500 HZ NSC
BECMG 2908/2910 29007KT 3500 HZ
BECMG 2915/2917 VRB02KT 2200 HZ BR
BECMG 2923/3001 29007KT 1200 BR
BECMG 3004/3006 29008G18KT 2500 BR HZ
BECMG 3008/3010 31010KT 3500 HZ NSC